sensor_id;sensor_type;location;lat;lon;timestamp;temperature;humidity
26035;DHT22;13809;48.632;11.576;2023-05-23T00:03:22;21.70;29.50
26035;DHT22;13809;48.632;11.576;2023-05-23T00:08:27;21.70;29.70
26035;DHT22;13809;48.632;11.576;2023-05-23T00:13:30;21.70;30.00
26035;DHT22;13809;48.632;11.576;2023-05-23T00:18:35;21.70;29.90
26035;DHT22;13809;48.632;11.576;2023-05-23T00:23:40;21.70;29.70
26035;DHT22;13809;48.632;11.576;2023-05-23T00:28:44;21.60;30.10
26035;DHT22;13809;48.632;11.576;2023-05-23T00:33:47;21.60;29.80
26035;DHT22;13809;48.632;11.576;2023-05-23T00:38:51;21.50;29.90
26035;DHT22;13809;48.632;11.576;2023-05-23T00:43:56;21.50;30.50
26035;DHT22;13809;48.632;11.576;2023-05-23T00:49:00;21.50;30.50
26035;DHT22;13809;48.632;11.576;2023-05-23T00:54:05;21.50;30.30
26035;DHT22;13809;48.632;11.576;2023-05-23T00:59:09;21.50;30.90
26035;DHT22;13809;48.632;11.576;2023-05-23T01:04:12;21.50;30.60
26035;DHT22;13809;48.632;11.576;2023-05-23T01:09:19;21.40;30.70
26035;DHT22;13809;48.632;11.576;2023-05-23T01:14:30;21.40;31.70
26035;DHT22;13809;48.632;11.576;2023-05-23T01:19:54;21.40;31.90
26035;DHT22;13809;48.632;11.576;2023-05-23T01:25:09;21.40;31.90
26035;DHT22;13809;48.632;11.576;2023-05-23T01:30:18;21.40;31.90
26035;DHT22;13809;48.632;11.576;2023-05-23T01:35:24;21.40;32.50
26035;DHT22;13809;48.632;11.576;2023-05-23T01:40:28;21.40;32.20
26035;DHT22;13809;48.632;11.576;2023-05-23T01:45:33;21.40;31.70
26035;DHT22;13809;48.632;11.576;2023-05-23T01:50:36;21.30;32.40
26035;DHT22;13809;48.632;11.576;2023-05-23T01:55:40;21.30;32.00
26035;DHT22;13809;48.632;11.576;2023-05-23T02:00:45;21.30;32.30
26035;DHT22;13809;48.632;11.576;2023-05-23T02:05:48;21.30;32.70
26035;DHT22;13809;48.632;11.576;2023-05-23T02:10:51;21.30;32.20
26035;DHT22;13809;48.632;11.576;2023-05-23T02:15:56;21.30;32.30
26035;DHT22;13809;48.632;11.576;2023-05-23T02:20:59;21.30;32.80
26035;DHT22;13809;48.632;11.576;2023-05-23T02:26:02;21.20;32.10
26035;DHT22;13809;48.632;11.576;2023-05-23T02:31:07;21.20;32.40
26035;DHT22;13809;48.632;11.576;2023-05-23T02:36:10;21.20;33.00
26035;DHT22;13809;48.632;11.576;2023-05-23T02:41:13;21.20;32.50
26035;DHT22;13809;48.632;11.576;2023-05-23T02:46:18;21.20;32.60
26035;DHT22;13809;48.632;11.576;2023-05-23T02:51:21;21.10;33.10
26035;DHT22;13809;48.632;11.576;2023-05-23T02:56:24;21.10;32.50
26035;DHT22;13809;48.632;11.576;2023-05-23T03:01:29;21.00;32.70
26035;DHT22;13809;48.632;11.576;2023-05-23T03:06:32;20.90;33.30
26035;DHT22;13809;48.632;11.576;2023-05-23T03:11:37;20.90;33.00
26035;DHT22;13809;48.632;11.576;2023-05-23T03:16:42;20.80;33.10
26035;DHT22;13809;48.632;11.576;2023-05-23T03:21:46;20.80;33.60
26035;DHT22;13809;48.632;11.576;2023-05-23T03:26:50;20.60;32.70
26035;DHT22;13809;48.632;11.576;2023-05-23T03:31:55;20.50;33.10
26035;DHT22;13809;48.632;11.576;2023-05-23T03:36:58;20.30;34.00
26035;DHT22;13809;48.632;11.576;2023-05-23T03:42:02;20.30;33.50
26035;DHT22;13809;48.632;11.576;2023-05-23T03:47:06;20.30;33.90
26035;DHT22;13809;48.632;11.576;2023-05-23T03:52:10;20.20;34.40
26035;DHT22;13809;48.632;11.576;2023-05-23T03:57:13;20.20;34.30
26035;DHT22;13809;48.632;11.576;2023-05-23T04:02:17;20.20;34.40
26035;DHT22;13809;48.632;11.576;2023-05-23T04:07:20;20.10;35.30
26035;DHT22;13809;48.632;11.576;2023-05-23T04:12:24;20.10;35.00
26035;DHT22;13809;48.632;11.576;2023-05-23T04:17:28;20.00;35.20
26035;DHT22;13809;48.632;11.576;2023-05-23T04:22:32;20.00;36.40
26035;DHT22;13809;48.632;11.576;2023-05-23T04:27:35;19.90;35.70
26035;DHT22;13809;48.632;11.576;2023-05-23T04:32:43;19.90;36.30
26035;DHT22;13809;48.632;11.576;2023-05-23T04:37:47;19.80;36.50
26035;DHT22;13809;48.632;11.576;2023-05-23T04:42:50;19.80;36.30
26035;DHT22;13809;48.632;11.576;2023-05-23T04:47:54;19.80;36.30
26035;DHT22;13809;48.632;11.576;2023-05-23T04:52:57;19.90;37.30
26035;DHT22;13809;48.632;11.576;2023-05-23T04:58:01;20.00;36.50
26035;DHT22;13809;48.632;11.576;2023-05-23T05:03:05;20.00;36.50
26035;DHT22;13809;48.632;11.576;2023-05-23T05:08:10;20.10;37.30
26035;DHT22;13809;48.632;11.576;2023-05-23T05:13:15;20.10;36.60
26035;DHT22;13809;48.632;11.576;2023-05-23T05:18:19;20.20;36.70
26035;DHT22;13809;48.632;11.576;2023-05-23T05:23:24;20.20;37.70
26035;DHT22;13809;48.632;11.576;2023-05-23T05:28:29;20.30;37.80
26035;DHT22;13809;48.632;11.576;2023-05-23T05:33:34;20.40;36.90
26035;DHT22;13809;48.632;11.576;2023-05-23T05:38:38;20.50;38.00
26035;DHT22;13809;48.632;11.576;2023-05-23T05:43:41;20.60;37.40
26035;DHT22;13809;48.632;11.576;2023-05-23T05:48:46;20.60;37.40
26035;DHT22;13809;48.632;11.576;2023-05-23T05:53:49;20.70;38.00
26035;DHT22;13809;48.632;11.576;2023-05-23T05:58:52;20.80;37.40
26035;DHT22;13809;48.632;11.576;2023-05-23T06:03:57;20.90;37.50
26035;DHT22;13809;48.632;11.576;2023-05-23T06:09:00;21.00;38.40
26035;DHT22;13809;48.632;11.576;2023-05-23T06:14:04;21.00;37.40
26035;DHT22;13809;48.632;11.576;2023-05-23T06:19:09;21.10;37.50
26035;DHT22;13809;48.632;11.576;2023-05-23T06:24:12;21.20;38.10
26035;DHT22;13809;48.632;11.576;2023-05-23T06:29:15;21.20;37.60
26035;DHT22;13809;48.632;11.576;2023-05-23T06:34:20;21.20;37.60
26035;DHT22;13809;48.632;11.576;2023-05-23T06:39:23;21.30;38.50
26035;DHT22;13809;48.632;11.576;2023-05-23T06:44:26;21.30;37.70
26035;DHT22;13809;48.632;11.576;2023-05-23T06:49:30;21.40;38.00
26035;DHT22;13809;48.632;11.576;2023-05-23T06:54:34;21.50;38.50
26035;DHT22;13809;48.632;11.576;2023-05-23T06:59:37;21.50;38.10
26035;DHT22;13809;48.632;11.576;2023-05-23T07:04:41;21.70;38.00
26035;DHT22;13809;48.632;11.576;2023-05-23T07:09:45;21.70;39.10
26035;DHT22;13809;48.632;11.576;2023-05-23T07:14:48;21.80;38.10
26035;DHT22;13809;48.632;11.576;2023-05-23T07:19:53;21.90;38.20
26035;DHT22;13809;48.632;11.576;2023-05-23T07:24:56;22.00;38.30
26035;DHT22;13809;48.632;11.576;2023-05-23T07:29:59;22.10;38.40
26035;DHT22;13809;48.632;11.576;2023-05-23T07:35:04;22.00;38.30
26035;DHT22;13809;48.632;11.576;2023-05-23T07:40:08;21.90;38.20
26035;DHT22;13809;48.632;11.576;2023-05-23T07:45:11;22.00;38.30
26035;DHT22;13809;48.632;11.576;2023-05-23T07:50:16;22.00;38.30
26035;DHT22;13809;48.632;11.576;2023-05-23T07:55:19;22.00;38.30
26035;DHT22;13809;48.632;11.576;2023-05-23T08:00:23;22.00;38.30
26035;DHT22;13809;48.632;11.576;2023-05-23T08:05:27;22.00;38.40
26035;DHT22;13809;48.632;11.576;2023-05-23T08:10:30;22.20;38.40
26035;DHT22;13809;48.632;11.576;2023-05-23T08:15:34;22.20;38.40
26035;DHT22;13809;48.632;11.576;2023-05-23T08:20:39;22.20;38.40
26035;DHT22;13809;48.632;11.576;2023-05-23T08:25:42;22.30;38.50
26035;DHT22;13809;48.632;11.576;2023-05-23T08:30:45;22.40;38.60
26035;DHT22;13809;48.632;11.576;2023-05-23T08:35:50;22.50;38.70
26035;DHT22;13809;48.632;11.576;2023-05-23T08:40:54;22.60;38.70
26035;DHT22;13809;48.632;11.576;2023-05-23T08:45:58;22.70;38.90
26035;DHT22;13809;48.632;11.576;2023-05-23T08:51:03;22.80;38.70
26035;DHT22;13809;48.632;11.576;2023-05-23T08:56:07;23.00;39.10
26035;DHT22;13809;48.632;11.576;2023-05-23T09:01:12;23.20;38.80
26035;DHT22;13809;48.632;11.576;2023-05-23T09:06:20;23.30;38.10
26035;DHT22;13809;48.632;11.576;2023-05-23T09:11:23;23.40;38.60
26035;DHT22;13809;48.632;11.576;2023-05-23T09:16:31;23.40;37.40
26035;DHT22;13809;48.632;11.576;2023-05-23T09:21:40;23.40;37.20
26035;DHT22;13809;48.632;11.576;2023-05-23T09:26:45;23.30;37.10
26035;DHT22;13809;48.632;11.576;2023-05-23T09:31:49;23.30;37.40
26035;DHT22;13809;48.632;11.576;2023-05-23T09:36:55;23.30;37.40
26035;DHT22;13809;48.632;11.576;2023-05-23T09:42:00;23.30;37.70
26035;DHT22;13809;48.632;11.576;2023-05-23T09:47:05;23.30;37.50
26035;DHT22;13809;48.632;11.576;2023-05-23T09:52:10;23.40;37.20
26035;DHT22;13809;48.632;11.576;2023-05-23T09:57:14;23.40;37.10
26035;DHT22;13809;48.632;11.576;2023-05-23T10:02:31;23.40;37.10
26035;DHT22;13809;48.632;11.576;2023-05-23T10:07:39;23.50;37.70
26035;DHT22;13809;48.632;11.576;2023-05-23T10:12:47;23.60;36.80
26035;DHT22;13809;48.632;11.576;2023-05-23T10:18:00;23.70;36.80
26035;DHT22;13809;48.632;11.576;2023-05-23T10:23:06;23.70;36.30
26035;DHT22;13809;48.632;11.576;2023-05-23T10:28:09;23.70;35.60
26035;DHT22;13809;48.632;11.576;2023-05-23T10:33:14;23.70;36.10
26035;DHT22;13809;48.632;11.576;2023-05-23T10:38:27;23.60;35.90
26035;DHT22;13809;48.632;11.576;2023-05-23T10:43:39;23.60;35.70
26035;DHT22;13809;48.632;11.576;2023-05-23T10:48:45;23.60;35.60
26035;DHT22;13809;48.632;11.576;2023-05-23T10:53:53;23.60;36.30
26035;DHT22;13809;48.632;11.576;2023-05-23T10:58:57;23.70;36.10
26035;DHT22;13809;48.632;11.576;2023-05-23T11:04:04;23.90;36.30
26035;DHT22;13809;48.632;11.576;2023-05-23T11:09:11;24.00;35.30
26035;DHT22;13809;48.632;11.576;2023-05-23T11:14:15;24.20;35.30
26035;DHT22;13809;48.632;11.576;2023-05-23T11:19:26;24.20;35.20
26035;DHT22;13809;48.632;11.576;2023-05-23T11:24:50;24.20;34.20
26035;DHT22;13809;48.632;11.576;2023-05-23T11:30:00;24.30;34.30
26035;DHT22;13809;48.632;11.576;2023-05-23T11:35:06;24.30;34.00
26035;DHT22;13809;48.632;11.576;2023-05-23T11:40:29;24.40;33.60
26035;DHT22;13809;48.632;11.576;2023-05-23T11:45:33;24.50;33.70
26035;DHT22;13809;48.632;11.576;2023-05-23T11:50:44;24.50;33.70
26035;DHT22;13809;48.632;11.576;2023-05-23T11:55:50;24.60;33.40
26035;DHT22;13809;48.632;11.576;2023-05-23T12:00:58;24.60;33.30
26035;DHT22;13809;48.632;11.576;2023-05-23T12:06:02;24.70;33.00
26035;DHT22;13809;48.632;11.576;2023-05-23T12:11:07;24.70;33.10
26035;DHT22;13809;48.632;11.576;2023-05-23T12:16:13;24.70;32.50
26035;DHT22;13809;48.632;11.576;2023-05-23T12:21:16;24.70;32.60
26035;DHT22;13809;48.632;11.576;2023-05-23T12:26:22;24.70;33.20
26035;DHT22;13809;48.632;11.576;2023-05-23T12:31:26;24.90;32.90
26035;DHT22;13809;48.632;11.576;2023-05-23T12:36:29;25.00;32.70
26035;DHT22;13809;48.632;11.576;2023-05-23T12:41:35;25.10;32.40
26035;DHT22;13809;48.632;11.576;2023-05-23T12:46:38;25.10;31.90
26035;DHT22;13809;48.632;11.576;2023-05-23T12:51:42;25.10;31.70
26035;DHT22;13809;48.632;11.576;2023-05-23T12:56:46;25.00;32.00
26035;DHT22;13809;48.632;11.576;2023-05-23T13:01:49;25.00;32.10
26035;DHT22;13809;48.632;11.576;2023-05-23T13:06:53;25.00;31.80
26035;DHT22;13809;48.632;11.576;2023-05-23T13:11:57;25.00;31.60
26035;DHT22;13809;48.632;11.576;2023-05-23T13:17:02;25.00;31.00
26035;DHT22;13809;48.632;11.576;2023-05-23T13:22:05;25.00;30.60
26035;DHT22;13809;48.632;11.576;2023-05-23T13:27:12;24.90;30.40
26035;DHT22;13809;48.632;11.576;2023-05-23T13:32:15;24.80;30.20
26035;DHT22;13809;48.632;11.576;2023-05-23T13:37:19;24.70;30.40
26035;DHT22;13809;48.632;11.576;2023-05-23T13:42:24;24.60;31.10
26035;DHT22;13809;48.632;11.576;2023-05-23T13:47:28;24.70;30.30
26035;DHT22;13809;48.632;11.576;2023-05-23T13:52:31;24.60;30.30
26035;DHT22;13809;48.632;11.576;2023-05-23T13:57:36;24.50;29.90
26035;DHT22;13809;48.632;11.576;2023-05-23T14:02:40;24.50;29.40
26035;DHT22;13809;48.632;11.576;2023-05-23T14:07:43;24.40;29.50
26035;DHT22;13809;48.632;11.576;2023-05-23T14:12:49;24.30;30.30
26035;DHT22;13809;48.632;11.576;2023-05-23T14:17:52;24.30;29.60
26035;DHT22;13809;48.632;11.576;2023-05-23T14:22:58;24.30;29.70
26035;DHT22;13809;48.632;11.576;2023-05-23T14:28:03;24.30;29.60
26035;DHT22;13809;48.632;11.576;2023-05-23T14:33:06;24.30;29.40
26035;DHT22;13809;48.632;11.576;2023-05-23T14:38:12;24.20;29.10
26035;DHT22;13809;48.632;11.576;2023-05-23T14:43:16;24.20;28.90
26035;DHT22;13809;48.632;11.576;2023-05-23T14:48:19;24.20;28.60
26035;DHT22;13809;48.632;11.576;2023-05-23T14:53:24;24.20;29.30
26035;DHT22;13809;48.632;11.576;2023-05-23T14:58:29;24.20;29.10
26035;DHT22;13809;48.632;11.576;2023-05-23T15:03:32;24.20;28.50
26035;DHT22;13809;48.632;11.576;2023-05-23T15:08:36;24.20;29.20
26035;DHT22;13809;48.632;11.576;2023-05-23T15:13:40;24.20;28.80
26035;DHT22;13809;48.632;11.576;2023-05-23T15:18:43;24.20;28.70
26035;DHT22;13809;48.632;11.576;2023-05-23T15:23:46;24.10;28.70
26035;DHT22;13809;48.632;11.576;2023-05-23T15:28:51;24.10;28.50
26035;DHT22;13809;48.632;11.576;2023-05-23T15:33:54;24.10;28.10
26035;DHT22;13809;48.632;11.576;2023-05-23T15:38:57;24.10;28.30
26035;DHT22;13809;48.632;11.576;2023-05-23T15:44:02;24.00;28.10
26035;DHT22;13809;48.632;11.576;2023-05-23T15:49:05;24.00;28.40
26035;DHT22;13809;48.632;11.576;2023-05-23T15:54:26;24.00;28.10
26035;DHT22;13809;48.632;11.576;2023-05-23T15:59:31;23.90;28.40
26035;DHT22;13809;48.632;11.576;2023-05-23T16:04:34;23.80;27.90
26035;DHT22;13809;48.632;11.576;2023-05-23T16:09:37;23.70;28.20
26035;DHT22;13809;48.632;11.576;2023-05-23T16:14:42;23.70;28.10
26035;DHT22;13809;48.632;11.576;2023-05-23T16:19:45;23.70;27.80
26035;DHT22;13809;48.632;11.576;2023-05-23T16:24:48;23.70;28.30
26035;DHT22;13809;48.632;11.576;2023-05-23T16:29:55;23.70;28.20
26035;DHT22;13809;48.632;11.576;2023-05-23T16:34:58;23.70;27.80
26035;DHT22;13809;48.632;11.576;2023-05-23T16:40:01;23.80;27.90
26035;DHT22;13809;48.632;11.576;2023-05-23T16:45:07;23.70;27.80
26035;DHT22;13809;48.632;11.576;2023-05-23T16:50:10;23.70;27.80
26035;DHT22;13809;48.632;11.576;2023-05-23T16:55:14;23.70;27.80
26035;DHT22;13809;48.632;11.576;2023-05-23T17:00:19;23.60;27.80
26035;DHT22;13809;48.632;11.576;2023-05-23T17:05:22;23.60;27.80
26035;DHT22;13809;48.632;11.576;2023-05-23T17:10:25;23.60;27.80
26035;DHT22;13809;48.632;11.576;2023-05-23T17:15:30;23.60;27.80
26035;DHT22;13809;48.632;11.576;2023-05-23T17:20:33;23.60;27.80
26035;DHT22;13809;48.632;11.576;2023-05-23T17:25:37;23.60;27.80
26035;DHT22;13809;48.632;11.576;2023-05-23T17:30:42;23.60;27.80
26035;DHT22;13809;48.632;11.576;2023-05-23T17:35:46;23.60;27.80
26035;DHT22;13809;48.632;11.576;2023-05-23T17:40:49;23.60;27.80
26035;DHT22;13809;48.632;11.576;2023-05-23T17:45:55;23.60;27.80
26035;DHT22;13809;48.632;11.576;2023-05-23T17:50:59;23.60;27.80
26035;DHT22;13809;48.632;11.576;2023-05-23T17:56:02;23.60;27.80
26035;DHT22;13809;48.632;11.576;2023-05-23T18:01:06;23.50;27.70
26035;DHT22;13809;48.632;11.576;2023-05-23T18:06:10;23.50;27.70
26035;DHT22;13809;48.632;11.576;2023-05-23T18:11:14;23.40;27.60
26035;DHT22;13809;48.632;11.576;2023-05-23T18:16:20;23.30;27.50
26035;DHT22;13809;48.632;11.576;2023-05-23T18:21:24;23.10;27.40
26035;DHT22;13809;48.632;11.576;2023-05-23T18:26:31;23.00;27.70
26035;DHT22;13809;48.632;11.576;2023-05-23T18:31:35;22.80;27.90
26035;DHT22;13809;48.632;11.576;2023-05-23T18:36:39;22.80;28.10
26035;DHT22;13809;48.632;11.576;2023-05-23T18:41:43;22.60;28.20
26035;DHT22;13809;48.632;11.576;2023-05-23T18:46:47;22.60;28.40
26035;DHT22;13809;48.632;11.576;2023-05-23T18:51:51;22.60;28.60
26035;DHT22;13809;48.632;11.576;2023-05-23T18:56:55;22.60;28.50
26035;DHT22;13809;48.632;11.576;2023-05-23T19:01:59;22.50;28.50
26035;DHT22;13809;48.632;11.576;2023-05-23T19:07:03;22.40;28.70
26035;DHT22;13809;48.632;11.576;2023-05-23T19:12:08;22.40;28.80
26035;DHT22;13809;48.632;11.576;2023-05-23T19:17:12;22.30;28.90
26035;DHT22;13809;48.632;11.576;2023-05-23T19:22:15;22.30;29.00
26035;DHT22;13809;48.632;11.576;2023-05-23T19:27:19;22.20;28.90
26035;DHT22;13809;48.632;11.576;2023-05-23T19:32:23;22.20;29.10
26035;DHT22;13809;48.632;11.576;2023-05-23T19:37:27;22.20;29.30
26035;DHT22;13809;48.632;11.576;2023-05-23T19:42:30;22.10;29.30
26035;DHT22;13809;48.632;11.576;2023-05-23T19:47:35;22.10;29.40
26035;DHT22;13809;48.632;11.576;2023-05-23T19:52:39;22.10;29.50
26035;DHT22;13809;48.632;11.576;2023-05-23T19:57:42;22.10;29.50
26035;DHT22;13809;48.632;11.576;2023-05-23T20:02:47;22.10;29.40
26035;DHT22;13809;48.632;11.576;2023-05-23T20:07:51;22.00;29.50
26035;DHT22;13809;48.632;11.576;2023-05-23T20:12:54;21.90;29.30
26035;DHT22;13809;48.632;11.576;2023-05-23T20:17:59;21.70;29.40
26035;DHT22;13809;48.632;11.576;2023-05-23T20:23:02;21.60;29.80
26035;DHT22;13809;48.632;11.576;2023-05-23T20:28:06;21.50;29.70
26035;DHT22;13809;48.632;11.576;2023-05-23T20:33:11;21.30;29.80
26035;DHT22;13809;48.632;11.576;2023-05-23T20:38:16;21.30;30.30
26035;DHT22;13809;48.632;11.576;2023-05-23T20:43:21;21.20;30.10
26035;DHT22;13809;48.632;11.576;2023-05-23T20:48:26;21.10;30.20
26035;DHT22;13809;48.632;11.576;2023-05-23T20:53:29;21.10;30.30
26035;DHT22;13809;48.632;11.576;2023-05-23T20:58:32;21.10;30.30
26035;DHT22;13809;48.632;11.576;2023-05-23T21:03:37;21.00;30.20
26035;DHT22;13809;48.632;11.576;2023-05-23T21:08:40;20.90;30.50
26035;DHT22;13809;48.632;11.576;2023-05-23T21:13:43;20.70;30.20
26035;DHT22;13809;48.632;11.576;2023-05-23T21:18:48;20.50;30.30
26035;DHT22;13809;48.632;11.576;2023-05-23T21:23:51;20.30;30.90
26035;DHT22;13809;48.632;11.576;2023-05-23T21:28:54;20.00;30.60
26035;DHT22;13809;48.632;11.576;2023-05-23T21:33:59;19.80;31.00
26035;DHT22;13809;48.632;11.576;2023-05-23T21:39:22;19.50;31.70
26035;DHT22;13809;48.632;11.576;2023-05-23T21:44:29;19.40;31.50
26035;DHT22;13809;48.632;11.576;2023-05-23T21:49:34;19.40;31.70
26035;DHT22;13809;48.632;11.576;2023-05-23T21:54:38;19.40;32.20
26035;DHT22;13809;48.632;11.576;2023-05-23T21:59:42;19.30;31.70
26035;DHT22;13809;48.632;11.576;2023-05-23T22:04:46;19.30;31.90
26035;DHT22;13809;48.632;11.576;2023-05-23T22:09:49;19.10;32.20
26035;DHT22;13809;48.632;11.576;2023-05-23T22:14:54;19.00;32.00
26035;DHT22;13809;48.632;11.576;2023-05-23T22:19:59;19.00;32.20
26035;DHT22;13809;48.632;11.576;2023-05-23T22:25:03;18.90;32.70
26035;DHT22;13809;48.632;11.576;2023-05-23T22:30:07;18.80;32.50
26035;DHT22;13809;48.632;11.576;2023-05-23T22:35:12;18.70;32.60
26035;DHT22;13809;48.632;11.576;2023-05-23T22:40:15;18.70;33.10
26035;DHT22;13809;48.632;11.576;2023-05-23T22:45:18;18.60;33.10
26035;DHT22;13809;48.632;11.576;2023-05-23T22:50:23;18.60;33.10
26035;DHT22;13809;48.632;11.576;2023-05-23T22:55:27;18.60;33.50
26035;DHT22;13809;48.632;11.576;2023-05-23T23:00:31;18.60;33.20
26035;DHT22;13809;48.632;11.576;2023-05-23T23:05:35;18.60;33.00
26035;DHT22;13809;48.632;11.576;2023-05-23T23:10:38;18.60;33.50
26035;DHT22;13809;48.632;11.576;2023-05-23T23:15:42;18.50;33.30
26035;DHT22;13809;48.632;11.576;2023-05-23T23:20:47;18.50;33.40
26035;DHT22;13809;48.632;11.576;2023-05-23T23:25:50;18.40;33.70
26035;DHT22;13809;48.632;11.576;2023-05-23T23:30:53;18.40;33.50
26035;DHT22;13809;48.632;11.576;2023-05-23T23:35:58;18.40;33.50
26035;DHT22;13809;48.632;11.576;2023-05-23T23:41:01;18.40;33.90
26035;DHT22;13809;48.632;11.576;2023-05-23T23:46:04;18.40;33.70
26035;DHT22;13809;48.632;11.576;2023-05-23T23:51:09;18.40;33.70
26035;DHT22;13809;48.632;11.576;2023-05-23T23:56:13;18.40;34.10
